sensor_id;sensor_type;location;lat;lon;timestamp;P1;durP1;ratioP1;P2;durP2;ratioP2
32872;SDS011;19224;52.462;16.898;2022-10-16T00:02:21;24.32;;;15.65;;
32872;SDS011;19224;52.462;16.898;2022-10-16T00:04:52;22.93;;;14.68;;
32872;SDS011;19224;52.462;16.898;2022-10-16T00:07:22;22.62;;;14.43;;
32872;SDS011;19224;52.462;16.898;2022-10-16T00:09:52;22.35;;;15.08;;
32872;SDS011;19224;52.462;16.898;2022-10-16T00:12:25;19.57;;;13.70;;
32872;SDS011;19224;52.462;16.898;2022-10-16T00:14:55;22.87;;;14.23;;
32872;SDS011;19224;52.462;16.898;2022-10-16T00:17:25;21.33;;;14.23;;
32872;SDS011;19224;52.462;16.898;2022-10-16T00:19:56;21.50;;;14.47;;
32872;SDS011;19224;52.462;16.898;2022-10-16T00:22:26;19.98;;;14.00;;
32872;SDS011;19224;52.462;16.898;2022-10-16T00:24:56;21.42;;;15.18;;
32872;SDS011;19224;52.462;16.898;2022-10-16T00:27:27;20.20;;;14.07;;
32872;SDS011;19224;52.462;16.898;2022-10-16T00:29:58;20.45;;;14.20;;
32872;SDS011;19224;52.462;16.898;2022-10-16T00:32:31;21.45;;;14.13;;
32872;SDS011;19224;52.462;16.898;2022-10-16T00:35:01;21.30;;;13.65;;
32872;SDS011;19224;52.462;16.898;2022-10-16T00:37:34;19.62;;;14.13;;
32872;SDS011;19224;52.462;16.898;2022-10-16T00:40:06;24.40;;;13.95;;
32872;SDS011;19224;52.462;16.898;2022-10-16T00:42:38;23.02;;;13.38;;
32872;SDS011;19224;52.462;16.898;2022-10-16T00:45:09;21.12;;;13.43;;
32872;SDS011;19224;52.462;16.898;2022-10-16T00:47:41;20.40;;;13.22;;
32872;SDS011;19224;52.462;16.898;2022-10-16T00:53:01;18.12;;;12.88;;
32872;SDS011;19224;52.462;16.898;2022-10-16T00:55:33;18.57;;;12.30;;
32872;SDS011;19224;52.462;16.898;2022-10-16T00:58:06;17.92;;;12.55;;
32872;SDS011;19224;52.462;16.898;2022-10-16T01:00:38;17.10;;;11.85;;
32872;SDS011;19224;52.462;16.898;2022-10-16T01:03:28;18.70;;;12.40;;
32872;SDS011;19224;52.462;16.898;2022-10-16T01:06:19;16.35;;;12.03;;
32872;SDS011;19224;52.462;16.898;2022-10-16T01:09:08;17.52;;;12.58;;
32872;SDS011;19224;52.462;16.898;2022-10-16T01:14:32;17.85;;;12.47;;
32872;SDS011;19224;52.462;16.898;2022-10-16T01:17:26;17.23;;;12.35;;
32872;SDS011;19224;52.462;16.898;2022-10-16T01:20:14;17.48;;;10.78;;
32872;SDS011;19224;52.462;16.898;2022-10-16T01:28:16;15.40;;;10.72;;
32872;SDS011;19224;52.462;16.898;2022-10-16T01:30:49;17.35;;;11.73;;
32872;SDS011;19224;52.462;16.898;2022-10-16T01:36:03;18.27;;;10.70;;
32872;SDS011;19224;52.462;16.898;2022-10-16T01:38:47;15.35;;;11.20;;
32872;SDS011;19224;52.462;16.898;2022-10-16T01:41:29;15.55;;;11.28;;
32872;SDS011;19224;52.462;16.898;2022-10-16T01:44:23;15.45;;;10.93;;
32872;SDS011;19224;52.462;16.898;2022-10-16T01:47:08;15.25;;;11.12;;
32872;SDS011;19224;52.462;16.898;2022-10-16T01:49:40;14.45;;;10.88;;
32872;SDS011;19224;52.462;16.898;2022-10-16T01:52:14;15.08;;;10.58;;
32872;SDS011;19224;52.462;16.898;2022-10-16T01:54:52;15.15;;;10.32;;
32872;SDS011;19224;52.462;16.898;2022-10-16T01:57:25;15.65;;;10.30;;
32872;SDS011;19224;52.462;16.898;2022-10-16T01:59:58;14.07;;;10.05;;
32872;SDS011;19224;52.462;16.898;2022-10-16T02:02:32;14.98;;;10.18;;
32872;SDS011;19224;52.462;16.898;2022-10-16T02:05:18;13.30;;;9.83;;
32872;SDS011;19224;52.462;16.898;2022-10-16T02:07:59;15.05;;;9.85;;
32872;SDS011;19224;52.462;16.898;2022-10-16T02:10:30;15.30;;;10.93;;
32872;SDS011;19224;52.462;16.898;2022-10-16T02:13:04;13.68;;;9.45;;
32872;SDS011;19224;52.462;16.898;2022-10-16T02:15:46;16.37;;;10.55;;
32872;SDS011;19224;52.462;16.898;2022-10-16T02:18:16;13.20;;;9.78;;
32872;SDS011;19224;52.462;16.898;2022-10-16T02:20:58;14.83;;;9.83;;
32872;SDS011;19224;52.462;16.898;2022-10-16T02:24:08;16.93;;;10.23;;
32872;SDS011;19224;52.462;16.898;2022-10-16T02:27:05;13.90;;;10.00;;
32872;SDS011;19224;52.462;16.898;2022-10-16T02:29:41;14.25;;;10.18;;
32872;SDS011;19224;52.462;16.898;2022-10-16T02:32:20;15.72;;;9.65;;
32872;SDS011;19224;52.462;16.898;2022-10-16T02:34:52;12.20;;;9.78;;
32872;SDS011;19224;52.462;16.898;2022-10-16T02:37:23;15.15;;;9.95;;
32872;SDS011;19224;52.462;16.898;2022-10-16T02:39:56;13.25;;;9.78;;
32872;SDS011;19224;52.462;16.898;2022-10-16T02:42:33;15.08;;;9.68;;
32872;SDS011;19224;52.462;16.898;2022-10-16T02:45:07;14.33;;;10.15;;
32872;SDS011;19224;52.462;16.898;2022-10-16T02:47:44;14.75;;;10.63;;
32872;SDS011;19224;52.462;16.898;2022-10-16T02:50:14;13.72;;;10.10;;
32872;SDS011;19224;52.462;16.898;2022-10-16T02:52:48;13.43;;;10.85;;
32872;SDS011;19224;52.462;16.898;2022-10-16T02:55:18;14.13;;;10.10;;
32872;SDS011;19224;52.462;16.898;2022-10-16T02:57:48;14.13;;;9.70;;
32872;SDS011;19224;52.462;16.898;2022-10-16T03:00:18;15.00;;;10.68;;
32872;SDS011;19224;52.462;16.898;2022-10-16T03:02:49;12.90;;;9.48;;
32872;SDS011;19224;52.462;16.898;2022-10-16T03:05:19;16.35;;;10.30;;
32872;SDS011;19224;52.462;16.898;2022-10-16T03:07:50;14.78;;;10.45;;
32872;SDS011;19224;52.462;16.898;2022-10-16T03:10:20;15.30;;;11.25;;
32872;SDS011;19224;52.462;16.898;2022-10-16T03:12:56;14.18;;;10.75;;
32872;SDS011;19224;52.462;16.898;2022-10-16T03:15:22;15.13;;;10.18;;
32872;SDS011;19224;52.462;16.898;2022-10-16T03:17:54;15.23;;;10.82;;
32872;SDS011;19224;52.462;16.898;2022-10-16T03:20:27;13.35;;;10.48;;
32872;SDS011;19224;52.462;16.898;2022-10-16T03:22:57;13.95;;;10.40;;
32872;SDS011;19224;52.462;16.898;2022-10-16T03:25:30;14.73;;;10.93;;
32872;SDS011;19224;52.462;16.898;2022-10-16T03:27:59;13.35;;;10.13;;
32872;SDS011;19224;52.462;16.898;2022-10-16T03:30:30;12.78;;;10.18;;
32872;SDS011;19224;52.462;16.898;2022-10-16T03:33:01;14.35;;;10.68;;
32872;SDS011;19224;52.462;16.898;2022-10-16T03:35:31;14.75;;;10.38;;
32872;SDS011;19224;52.462;16.898;2022-10-16T03:38:03;17.73;;;11.18;;
32872;SDS011;19224;52.462;16.898;2022-10-16T03:40:34;13.30;;;9.80;;
32872;SDS011;19224;52.462;16.898;2022-10-16T03:43:04;15.15;;;10.75;;
32872;SDS011;19224;52.462;16.898;2022-10-16T03:45:33;15.48;;;9.75;;
32872;SDS011;19224;52.462;16.898;2022-10-16T03:48:04;15.93;;;10.35;;
32872;SDS011;19224;52.462;16.898;2022-10-16T03:50:41;13.53;;;10.23;;
32872;SDS011;19224;52.462;16.898;2022-10-16T03:53:11;15.18;;;9.78;;
32872;SDS011;19224;52.462;16.898;2022-10-16T03:55:43;17.02;;;10.78;;
32872;SDS011;19224;52.462;16.898;2022-10-16T03:58:13;13.18;;;10.30;;
32872;SDS011;19224;52.462;16.898;2022-10-16T04:00:46;15.45;;;10.32;;
32872;SDS011;19224;52.462;16.898;2022-10-16T04:03:16;14.13;;;10.78;;
32872;SDS011;19224;52.462;16.898;2022-10-16T04:05:47;13.72;;;10.35;;
32872;SDS011;19224;52.462;16.898;2022-10-16T04:08:21;14.13;;;9.68;;
32872;SDS011;19224;52.462;16.898;2022-10-16T04:10:56;13.50;;;10.00;;
32872;SDS011;19224;52.462;16.898;2022-10-16T04:13:26;16.25;;;10.43;;
32872;SDS011;19224;52.462;16.898;2022-10-16T04:15:56;13.98;;;10.43;;
32872;SDS011;19224;52.462;16.898;2022-10-16T04:18:28;13.18;;;10.08;;
32872;SDS011;19224;52.462;16.898;2022-10-16T04:21:02;15.40;;;10.50;;
32872;SDS011;19224;52.462;16.898;2022-10-16T04:23:41;14.43;;;10.35;;
32872;SDS011;19224;52.462;16.898;2022-10-16T04:26:11;13.38;;;9.28;;
32872;SDS011;19224;52.462;16.898;2022-10-16T04:28:41;13.95;;;10.35;;
32872;SDS011;19224;52.462;16.898;2022-10-16T04:31:11;15.03;;;11.08;;
32872;SDS011;19224;52.462;16.898;2022-10-16T04:33:44;13.25;;;10.50;;
32872;SDS011;19224;52.462;16.898;2022-10-16T04:36:14;16.42;;;10.60;;
32872;SDS011;19224;52.462;16.898;2022-10-16T04:38:45;13.43;;;10.32;;
32872;SDS011;19224;52.462;16.898;2022-10-16T04:41:15;14.30;;;10.68;;
32872;SDS011;19224;52.462;16.898;2022-10-16T04:43:47;12.88;;;10.70;;
32872;SDS011;19224;52.462;16.898;2022-10-16T04:46:17;13.08;;;10.15;;
32872;SDS011;19224;52.462;16.898;2022-10-16T04:48:47;14.25;;;10.23;;
32872;SDS011;19224;52.462;16.898;2022-10-16T04:51:19;13.75;;;10.30;;
32872;SDS011;19224;52.462;16.898;2022-10-16T04:53:56;14.15;;;10.68;;
32872;SDS011;19224;52.462;16.898;2022-10-16T04:56:29;15.35;;;10.90;;
32872;SDS011;19224;52.462;16.898;2022-10-16T04:59:02;14.83;;;10.70;;
32872;SDS011;19224;52.462;16.898;2022-10-16T05:01:32;16.67;;;11.48;;
32872;SDS011;19224;52.462;16.898;2022-10-16T05:04:02;14.00;;;10.45;;
32872;SDS011;19224;52.462;16.898;2022-10-16T05:06:32;14.07;;;10.43;;
32872;SDS011;19224;52.462;16.898;2022-10-16T05:09:03;14.45;;;11.30;;
32872;SDS011;19224;52.462;16.898;2022-10-16T05:11:34;15.23;;;10.75;;
32872;SDS011;19224;52.462;16.898;2022-10-16T05:14:04;16.30;;;11.18;;
32872;SDS011;19224;52.462;16.898;2022-10-16T05:16:39;14.23;;;10.88;;
32872;SDS011;19224;52.462;16.898;2022-10-16T05:19:09;14.33;;;11.20;;
32872;SDS011;19224;52.462;16.898;2022-10-16T05:21:40;15.55;;;10.90;;
32872;SDS011;19224;52.462;16.898;2022-10-16T05:24:11;14.18;;;10.63;;
32872;SDS011;19224;52.462;16.898;2022-10-16T05:26:41;14.75;;;11.10;;
32872;SDS011;19224;52.462;16.898;2022-10-16T05:29:11;15.00;;;10.68;;
32872;SDS011;19224;52.462;16.898;2022-10-16T05:31:42;16.85;;;11.20;;
32872;SDS011;19224;52.462;16.898;2022-10-16T05:34:12;15.18;;;10.78;;
32872;SDS011;19224;52.462;16.898;2022-10-16T05:36:45;13.30;;;10.65;;
32872;SDS011;19224;52.462;16.898;2022-10-16T05:39:15;13.48;;;10.48;;
32872;SDS011;19224;52.462;16.898;2022-10-16T05:41:49;15.55;;;10.93;;
32872;SDS011;19224;52.462;16.898;2022-10-16T05:44:19;14.00;;;10.30;;
32872;SDS011;19224;52.462;16.898;2022-10-16T05:46:51;15.90;;;11.45;;
32872;SDS011;19224;52.462;16.898;2022-10-16T05:49:22;13.88;;;10.65;;
32872;SDS011;19224;52.462;16.898;2022-10-16T05:51:52;14.28;;;10.80;;
32872;SDS011;19224;52.462;16.898;2022-10-16T05:54:24;14.10;;;9.98;;
32872;SDS011;19224;52.462;16.898;2022-10-16T05:56:54;13.75;;;10.60;;
32872;SDS011;19224;52.462;16.898;2022-10-16T05:59:24;13.65;;;10.48;;
32872;SDS011;19224;52.462;16.898;2022-10-16T06:01:54;15.70;;;9.83;;
32872;SDS011;19224;52.462;16.898;2022-10-16T06:04:25;15.70;;;11.05;;
32872;SDS011;19224;52.462;16.898;2022-10-16T06:07:05;14.23;;;10.60;;
32872;SDS011;19224;52.462;16.898;2022-10-16T06:09:36;14.05;;;11.00;;
32872;SDS011;19224;52.462;16.898;2022-10-16T06:12:06;15.93;;;11.12;;
32872;SDS011;19224;52.462;16.898;2022-10-16T06:14:36;15.63;;;11.38;;
32872;SDS011;19224;52.462;16.898;2022-10-16T06:17:11;12.35;;;10.28;;
32872;SDS011;19224;52.462;16.898;2022-10-16T06:19:42;16.75;;;11.18;;
32872;SDS011;19224;52.462;16.898;2022-10-16T06:22:13;12.75;;;10.08;;
32872;SDS011;19224;52.462;16.898;2022-10-16T06:24:43;13.62;;;10.80;;
32872;SDS011;19224;52.462;16.898;2022-10-16T06:27:17;14.03;;;11.28;;
32872;SDS011;19224;52.462;16.898;2022-10-16T06:29:49;14.05;;;11.30;;
32872;SDS011;19224;52.462;16.898;2022-10-16T06:32:19;16.00;;;11.55;;
32872;SDS011;19224;52.462;16.898;2022-10-16T06:34:49;15.25;;;11.30;;
32872;SDS011;19224;52.462;16.898;2022-10-16T06:37:20;18.75;;;11.22;;
32872;SDS011;19224;52.462;16.898;2022-10-16T06:39:50;14.75;;;11.08;;
32872;SDS011;19224;52.462;16.898;2022-10-16T06:42:22;16.75;;;11.38;;
32872;SDS011;19224;52.462;16.898;2022-10-16T06:44:55;14.18;;;10.72;;
32872;SDS011;19224;52.462;16.898;2022-10-16T06:47:25;14.47;;;10.60;;
32872;SDS011;19224;52.462;16.898;2022-10-16T06:49:56;13.80;;;11.18;;
32872;SDS011;19224;52.462;16.898;2022-10-16T06:52:28;14.47;;;11.10;;
32872;SDS011;19224;52.462;16.898;2022-10-16T06:54:58;14.50;;;10.68;;
32872;SDS011;19224;52.462;16.898;2022-10-16T06:57:30;13.15;;;10.55;;
32872;SDS011;19224;52.462;16.898;2022-10-16T07:00:00;12.35;;;9.80;;
32872;SDS011;19224;52.462;16.898;2022-10-16T07:02:31;13.20;;;10.45;;
32872;SDS011;19224;52.462;16.898;2022-10-16T07:05:01;12.33;;;9.75;;
32872;SDS011;19224;52.462;16.898;2022-10-16T07:07:32;13.75;;;10.32;;
32872;SDS011;19224;52.462;16.898;2022-10-16T07:10:03;15.55;;;10.75;;
32872;SDS011;19224;52.462;16.898;2022-10-16T07:12:33;12.43;;;9.83;;
32872;SDS011;19224;52.462;16.898;2022-10-16T07:15:04;13.15;;;10.25;;
32872;SDS011;19224;52.462;16.898;2022-10-16T07:17:38;13.28;;;9.50;;
32872;SDS011;19224;52.462;16.898;2022-10-16T07:20:08;11.43;;;9.43;;
32872;SDS011;19224;52.462;16.898;2022-10-16T07:22:45;13.98;;;9.98;;
32872;SDS011;19224;52.462;16.898;2022-10-16T07:25:16;11.63;;;9.90;;
32872;SDS011;19224;52.462;16.898;2022-10-16T07:27:46;13.18;;;10.65;;
32872;SDS011;19224;52.462;16.898;2022-10-16T07:30:16;12.10;;;9.70;;
32872;SDS011;19224;52.462;16.898;2022-10-16T07:32:46;13.75;;;10.58;;
32872;SDS011;19224;52.462;16.898;2022-10-16T07:35:16;15.40;;;10.28;;
32872;SDS011;19224;52.462;16.898;2022-10-16T07:37:48;13.75;;;10.32;;
32872;SDS011;19224;52.462;16.898;2022-10-16T07:40:22;12.78;;;9.95;;
32872;SDS011;19224;52.462;16.898;2022-10-16T07:42:54;11.55;;;9.85;;
32872;SDS011;19224;52.462;16.898;2022-10-16T07:45:24;14.23;;;10.15;;
32872;SDS011;19224;52.462;16.898;2022-10-16T07:47:56;11.97;;;9.60;;
32872;SDS011;19224;52.462;16.898;2022-10-16T07:50:26;13.15;;;9.65;;
32872;SDS011;19224;52.462;16.898;2022-10-16T07:52:56;13.35;;;10.48;;
32872;SDS011;19224;52.462;16.898;2022-10-16T07:55:26;12.58;;;9.60;;
32872;SDS011;19224;52.462;16.898;2022-10-16T07:57:56;13.53;;;9.93;;
32872;SDS011;19224;52.462;16.898;2022-10-16T08:00:28;12.65;;;9.70;;
32872;SDS011;19224;52.462;16.898;2022-10-16T08:02:58;15.63;;;9.63;;
32872;SDS011;19224;52.462;16.898;2022-10-16T08:05:29;12.13;;;9.60;;
32872;SDS011;19224;52.462;16.898;2022-10-16T08:08:01;11.75;;;8.95;;
32872;SDS011;19224;52.462;16.898;2022-10-16T08:10:34;10.63;;;8.83;;
32872;SDS011;19224;52.462;16.898;2022-10-16T08:13:05;11.57;;;9.45;;
32872;SDS011;19224;52.462;16.898;2022-10-16T08:15:38;13.93;;;9.85;;
32872;SDS011;19224;52.462;16.898;2022-10-16T08:18:10;13.00;;;9.18;;
32872;SDS011;19224;52.462;16.898;2022-10-16T08:20:45;14.53;;;9.45;;
32872;SDS011;19224;52.462;16.898;2022-10-16T08:23:15;11.30;;;9.15;;
32872;SDS011;19224;52.462;16.898;2022-10-16T08:25:45;13.88;;;9.00;;
32872;SDS011;19224;52.462;16.898;2022-10-16T08:28:19;13.30;;;8.95;;
32872;SDS011;19224;52.462;16.898;2022-10-16T08:30:50;11.53;;;8.65;;
32872;SDS011;19224;52.462;16.898;2022-10-16T08:33:20;10.58;;;8.33;;
32872;SDS011;19224;52.462;16.898;2022-10-16T08:35:50;11.53;;;8.50;;
32872;SDS011;19224;52.462;16.898;2022-10-16T08:38:21;11.30;;;8.73;;
32872;SDS011;19224;52.462;16.898;2022-10-16T08:47:02;9.35;;;7.80;;
32872;SDS011;19224;52.462;16.898;2022-10-16T08:52:29;10.63;;;8.30;;
32872;SDS011;19224;52.462;16.898;2022-10-16T08:55:03;11.28;;;7.75;;
32872;SDS011;19224;52.462;16.898;2022-10-16T08:57:34;9.05;;;7.35;;
32872;SDS011;19224;52.462;16.898;2022-10-16T09:00:11;10.00;;;7.35;;
32872;SDS011;19224;52.462;16.898;2022-10-16T09:14:40;12.03;;;7.47;;
32872;SDS011;19224;52.462;16.898;2022-10-16T09:17:22;11.08;;;7.25;;
32872;SDS011;19224;52.462;16.898;2022-10-16T09:19:59;10.00;;;7.12;;
32872;SDS011;19224;52.462;16.898;2022-10-16T09:25:56;10.20;;;7.75;;
32872;SDS011;19224;52.462;16.898;2022-10-16T09:28:38;8.48;;;7.03;;
32872;SDS011;19224;52.462;16.898;2022-10-16T09:31:15;10.23;;;7.87;;
32872;SDS011;19224;52.462;16.898;2022-10-16T09:33:52;9.05;;;7.15;;
32872;SDS011;19224;52.462;16.898;2022-10-16T09:36:25;9.10;;;7.42;;
32872;SDS011;19224;52.462;16.898;2022-10-16T09:39:07;12.00;;;7.40;;
32872;SDS011;19224;52.462;16.898;2022-10-16T09:41:41;9.10;;;7.17;;
32872;SDS011;19224;52.462;16.898;2022-10-16T09:44:21;13.45;;;7.05;;
32872;SDS011;19224;52.462;16.898;2022-10-16T09:49:57;9.85;;;7.53;;
32872;SDS011;19224;52.462;16.898;2022-10-16T09:52:36;8.23;;;6.67;;
32872;SDS011;19224;52.462;16.898;2022-10-16T09:55:13;11.63;;;7.20;;
32872;SDS011;19224;52.462;16.898;2022-10-16T09:57:49;8.25;;;6.60;;
32872;SDS011;19224;52.462;16.898;2022-10-16T10:00:24;11.10;;;6.90;;
32872;SDS011;19224;52.462;16.898;2022-10-16T10:02:54;12.15;;;6.65;;
32872;SDS011;19224;52.462;16.898;2022-10-16T10:05:25;7.95;;;6.28;;
32872;SDS011;19224;52.462;16.898;2022-10-16T10:08:01;7.10;;;5.58;;
32872;SDS011;19224;52.462;16.898;2022-10-16T10:10:34;8.35;;;5.70;;
32872;SDS011;19224;52.462;16.898;2022-10-16T10:13:21;7.47;;;5.47;;
32872;SDS011;19224;52.462;16.898;2022-10-16T10:15:49;5.55;;;4.78;;
32872;SDS011;19224;52.462;16.898;2022-10-16T10:18:21;5.85;;;4.92;;
32872;SDS011;19224;52.462;16.898;2022-10-16T10:20:59;12.55;;;5.05;;
32872;SDS011;19224;52.462;16.898;2022-10-16T10:23:33;5.37;;;4.80;;
32872;SDS011;19224;52.462;16.898;2022-10-16T10:26:16;5.67;;;4.60;;
32872;SDS011;19224;52.462;16.898;2022-10-16T10:29:04;10.38;;;4.97;;
32872;SDS011;19224;52.462;16.898;2022-10-16T10:31:48;7.70;;;5.10;;
32872;SDS011;19224;52.462;16.898;2022-10-16T10:40:27;5.45;;;4.95;;
32872;SDS011;19224;52.462;16.898;2022-10-16T10:46:29;7.75;;;5.15;;
32872;SDS011;19224;52.462;16.898;2022-10-16T10:55:27;7.22;;;4.70;;
32872;SDS011;19224;52.462;16.898;2022-10-16T10:58:29;10.00;;;5.28;;
32872;SDS011;19224;52.462;16.898;2022-10-16T11:01:14;6.35;;;4.17;;
32872;SDS011;19224;52.462;16.898;2022-10-16T11:06:50;5.95;;;5.12;;
32872;SDS011;19224;52.462;16.898;2022-10-16T11:09:31;6.08;;;5.10;;
32872;SDS011;19224;52.462;16.898;2022-10-16T11:12:17;7.80;;;5.22;;
32872;SDS011;19224;52.462;16.898;2022-10-16T11:14:56;6.30;;;4.72;;
32872;SDS011;19224;52.462;16.898;2022-10-16T11:18:06;6.33;;;4.62;;
32872;SDS011;19224;52.462;16.898;2022-10-16T11:20:49;5.65;;;4.47;;
32872;SDS011;19224;52.462;16.898;2022-10-16T11:23:25;6.92;;;5.40;;
32872;SDS011;19224;52.462;16.898;2022-10-16T11:26:02;6.45;;;4.12;;
32872;SDS011;19224;52.462;16.898;2022-10-16T11:28:39;7.53;;;4.75;;
32872;SDS011;19224;52.462;16.898;2022-10-16T11:31:28;5.65;;;4.17;;
32872;SDS011;19224;52.462;16.898;2022-10-16T11:34:01;10.00;;;4.22;;
32872;SDS011;19224;52.462;16.898;2022-10-16T11:36:39;5.62;;;4.20;;
32872;SDS011;19224;52.462;16.898;2022-10-16T11:39:22;4.55;;;4.15;;
32872;SDS011;19224;52.462;16.898;2022-10-16T11:42:00;6.28;;;4.10;;
32872;SDS011;19224;52.462;16.898;2022-10-16T11:45:00;5.37;;;4.28;;
32872;SDS011;19224;52.462;16.898;2022-10-16T11:47:54;7.97;;;4.30;;
32872;SDS011;19224;52.462;16.898;2022-10-16T11:50:53;3.92;;;3.52;;
32872;SDS011;19224;52.462;16.898;2022-10-16T11:53:34;3.67;;;3.22;;
32872;SDS011;19224;52.462;16.898;2022-10-16T11:56:29;5.45;;;3.35;;
32872;SDS011;19224;52.462;16.898;2022-10-16T11:59:08;3.10;;;2.80;;
32872;SDS011;19224;52.462;16.898;2022-10-16T12:05:17;5.42;;;3.30;;
32872;SDS011;19224;52.462;16.898;2022-10-16T12:08:10;7.17;;;4.90;;
32872;SDS011;19224;52.462;16.898;2022-10-16T12:10:44;6.90;;;3.12;;
32872;SDS011;19224;52.462;16.898;2022-10-16T12:13:28;4.58;;;2.77;;
32872;SDS011;19224;52.462;16.898;2022-10-16T12:21:40;3.77;;;2.98;;
32872;SDS011;19224;52.462;16.898;2022-10-16T12:27:27;4.92;;;2.98;;
32872;SDS011;19224;52.462;16.898;2022-10-16T12:30:04;3.85;;;3.25;;
32872;SDS011;19224;52.462;16.898;2022-10-16T12:32:38;3.67;;;3.10;;
32872;SDS011;19224;52.462;16.898;2022-10-16T12:35:18;5.12;;;3.12;;
32872;SDS011;19224;52.462;16.898;2022-10-16T12:37:51;4.78;;;3.42;;
32872;SDS011;19224;52.462;16.898;2022-10-16T12:40:26;6.55;;;2.85;;
32872;SDS011;19224;52.462;16.898;2022-10-16T12:43:23;5.92;;;2.67;;
32872;SDS011;19224;52.462;16.898;2022-10-16T12:48:49;6.75;;;2.55;;
32872;SDS011;19224;52.462;16.898;2022-10-16T12:51:22;2.50;;;2.30;;
32872;SDS011;19224;52.462;16.898;2022-10-16T12:54:11;4.83;;;2.25;;
32872;SDS011;19224;52.462;16.898;2022-10-16T13:05:50;3.00;;;2.42;;
32872;SDS011;19224;52.462;16.898;2022-10-16T13:17:33;2.98;;;2.55;;
32872;SDS011;19224;52.462;16.898;2022-10-16T13:20:35;5.50;;;2.77;;
32872;SDS011;19224;52.462;16.898;2022-10-16T13:26:31;2.83;;;2.62;;
32872;SDS011;19224;52.462;16.898;2022-10-16T13:29:15;5.97;;;2.72;;
32872;SDS011;19224;52.462;16.898;2022-10-16T13:32:07;5.83;;;2.70;;
32872;SDS011;19224;52.462;16.898;2022-10-16T13:34:27;3.30;;;2.62;;
32872;SDS011;19224;52.462;16.898;2022-10-16T13:36:58;3.98;;;2.67;;
32872;SDS011;19224;52.462;16.898;2022-10-16T13:39:30;4.03;;;2.80;;
32872;SDS011;19224;52.462;16.898;2022-10-16T13:42:16;4.33;;;2.90;;
32872;SDS011;19224;52.462;16.898;2022-10-16T13:45:03;3.30;;;2.92;;
32872;SDS011;19224;52.462;16.898;2022-10-16T13:47:38;3.25;;;2.50;;
32872;SDS011;19224;52.462;16.898;2022-10-16T13:50:14;2.92;;;2.60;;
32872;SDS011;19224;52.462;16.898;2022-10-16T13:52:47;6.53;;;2.75;;
32872;SDS011;19224;52.462;16.898;2022-10-16T13:55:18;4.53;;;2.65;;
32872;SDS011;19224;52.462;16.898;2022-10-16T13:57:48;3.60;;;2.83;;
32872;SDS011;19224;52.462;16.898;2022-10-16T14:00:25;5.03;;;2.70;;
32872;SDS011;19224;52.462;16.898;2022-10-16T14:03:00;5.53;;;2.92;;
32872;SDS011;19224;52.462;16.898;2022-10-16T14:05:35;6.17;;;3.02;;
32872;SDS011;19224;52.462;16.898;2022-10-16T14:08:09;3.77;;;2.75;;
32872;SDS011;19224;52.462;16.898;2022-10-16T14:10:40;5.30;;;2.72;;
32872;SDS011;19224;52.462;16.898;2022-10-16T14:13:15;4.85;;;2.60;;
32872;SDS011;19224;52.462;16.898;2022-10-16T14:15:46;3.80;;;2.85;;
32872;SDS011;19224;52.462;16.898;2022-10-16T14:18:20;4.10;;;2.55;;
32872;SDS011;19224;52.462;16.898;2022-10-16T14:20:54;3.15;;;2.65;;
32872;SDS011;19224;52.462;16.898;2022-10-16T14:23:29;5.72;;;3.33;;
32872;SDS011;19224;52.462;16.898;2022-10-16T14:28:44;3.95;;;2.52;;
32872;SDS011;19224;52.462;16.898;2022-10-16T14:34:02;5.33;;;2.67;;
32872;SDS011;19224;52.462;16.898;2022-10-16T14:36:34;6.42;;;2.98;;
32872;SDS011;19224;52.462;16.898;2022-10-16T14:39:05;4.65;;;2.80;;
32872;SDS011;19224;52.462;16.898;2022-10-16T14:41:50;4.25;;;2.65;;
32872;SDS011;19224;52.462;16.898;2022-10-16T14:44:27;3.83;;;2.33;;
32872;SDS011;19224;52.462;16.898;2022-10-16T14:47:07;3.15;;;2.40;;
32872;SDS011;19224;52.462;16.898;2022-10-16T14:49:43;4.05;;;2.58;;
32872;SDS011;19224;52.462;16.898;2022-10-16T14:52:13;6.20;;;2.87;;
32872;SDS011;19224;52.462;16.898;2022-10-16T14:54:47;6.12;;;2.85;;
32872;SDS011;19224;52.462;16.898;2022-10-16T14:57:22;4.25;;;2.50;;
32872;SDS011;19224;52.462;16.898;2022-10-16T14:59:59;3.85;;;2.52;;
32872;SDS011;19224;52.462;16.898;2022-10-16T15:02:35;2.95;;;2.50;;
32872;SDS011;19224;52.462;16.898;2022-10-16T15:05:17;4.03;;;2.52;;
32872;SDS011;19224;52.462;16.898;2022-10-16T15:07:54;4.17;;;2.98;;
32872;SDS011;19224;52.462;16.898;2022-10-16T15:10:25;6.67;;;3.20;;
32872;SDS011;19224;52.462;16.898;2022-10-16T15:12:59;4.87;;;2.77;;
32872;SDS011;19224;52.462;16.898;2022-10-16T15:15:36;7.30;;;3.00;;
32872;SDS011;19224;52.462;16.898;2022-10-16T15:18:21;3.62;;;2.83;;
32872;SDS011;19224;52.462;16.898;2022-10-16T15:20:55;5.25;;;3.08;;
32872;SDS011;19224;52.462;16.898;2022-10-16T15:23:25;4.65;;;2.90;;
32872;SDS011;19224;52.462;16.898;2022-10-16T15:25:55;4.72;;;2.65;;
32872;SDS011;19224;52.462;16.898;2022-10-16T15:28:28;5.65;;;2.40;;
32872;SDS011;19224;52.462;16.898;2022-10-16T15:30:58;2.70;;;2.45;;
32872;SDS011;19224;52.462;16.898;2022-10-16T15:33:35;3.67;;;2.10;;
32872;SDS011;19224;52.462;16.898;2022-10-16T15:36:09;6.75;;;2.72;;
32872;SDS011;19224;52.462;16.898;2022-10-16T15:38:39;3.00;;;2.52;;
32872;SDS011;19224;52.462;16.898;2022-10-16T15:41:09;3.50;;;2.00;;
32872;SDS011;19224;52.462;16.898;2022-10-16T15:43:40;4.58;;;2.45;;
32872;SDS011;19224;52.462;16.898;2022-10-16T15:46:17;3.70;;;2.25;;
32872;SDS011;19224;52.462;16.898;2022-10-16T15:48:43;3.30;;;2.50;;
32872;SDS011;19224;52.462;16.898;2022-10-16T15:51:13;3.62;;;2.37;;
32872;SDS011;19224;52.462;16.898;2022-10-16T15:53:44;5.75;;;2.02;;
32872;SDS011;19224;52.462;16.898;2022-10-16T15:56:14;7.83;;;2.40;;
32872;SDS011;19224;52.462;16.898;2022-10-16T15:58:46;2.80;;;2.30;;
32872;SDS011;19224;52.462;16.898;2022-10-16T16:01:18;4.50;;;2.50;;
32872;SDS011;19224;52.462;16.898;2022-10-16T16:03:53;4.15;;;3.05;;
32872;SDS011;19224;52.462;16.898;2022-10-16T16:06:24;3.52;;;2.83;;
32872;SDS011;19224;52.462;16.898;2022-10-16T16:08:58;7.67;;;3.20;;
32872;SDS011;19224;52.462;16.898;2022-10-16T16:11:28;8.90;;;3.30;;
32872;SDS011;19224;52.462;16.898;2022-10-16T16:14:03;4.87;;;3.33;;
32872;SDS011;19224;52.462;16.898;2022-10-16T16:16:41;7.33;;;3.05;;
32872;SDS011;19224;52.462;16.898;2022-10-16T16:19:25;7.45;;;4.08;;
32872;SDS011;19224;52.462;16.898;2022-10-16T16:21:58;7.78;;;4.72;;
32872;SDS011;19224;52.462;16.898;2022-10-16T16:24:34;5.85;;;4.35;;
32872;SDS011;19224;52.462;16.898;2022-10-16T16:27:04;6.05;;;3.67;;
32872;SDS011;19224;52.462;16.898;2022-10-16T16:29:40;11.28;;;5.80;;
32872;SDS011;19224;52.462;16.898;2022-10-16T16:32:10;4.75;;;4.03;;
32872;SDS011;19224;52.462;16.898;2022-10-16T16:34:45;5.80;;;3.80;;
32872;SDS011;19224;52.462;16.898;2022-10-16T16:37:15;5.03;;;3.60;;
32872;SDS011;19224;52.462;16.898;2022-10-16T16:39:45;6.33;;;3.52;;
32872;SDS011;19224;52.462;16.898;2022-10-16T16:42:17;4.08;;;3.50;;
32872;SDS011;19224;52.462;16.898;2022-10-16T16:44:49;4.85;;;3.52;;
32872;SDS011;19224;52.462;16.898;2022-10-16T16:47:22;7.80;;;3.75;;